Time;durP1;ratioP1;P1;durP2;ratioP2;P2;SDS_P1;SDS_P2;PMS_P1;PMS_P2;Temp;Humidity;BMP_temperature;BMP_pressure;BME280_temperature;BME280_humidity;BME280_pressure;Samples;Min_cycle;Max_cycle;Signal;HPM_P1;HPM_P2
2023/09/25 00:01:46;;;;;;;0.10;0.10;;;;;;;11.94;100.00;99902.09;5137209;27;20185;-57
2023/09/25 00:04:33;;;;;;;0.13;0.13;;;;;;;11.87;100.00;99903.41;5137091;27;20197;-57
2023/09/25 00:07:20;;;;;;;0.20;0.20;;;;;;;11.69;100.00;99902.63;5136947;27;20323;-57
2023/09/25 00:10:08;;;;;;;0.10;0.10;;;;;;;11.45;100.00;99903.06;5135615;27;20185;-58
2023/09/25 00:12:55;;;;;;;0.20;0.20;;;;;;;11.58;100.00;99905.00;5137000;27;20219;-57
2023/09/25 00:15:44;;;;;;;0.10;0.10;;;;;;;11.37;100.00;99905.28;5136908;27;20284;-57
2023/09/25 00:18:32;;;;;;;0.10;0.10;;;;;;;11.36;100.00;99902.72;5136760;27;20213;-57
2023/09/25 00:21:19;;;;;;;0.10;0.10;;;;;;;-144.59;100.00;99902.72;5136683;27;20201;-57
2023/09/25 00:24:07;;;;;;;0.13;0.13;;;;;;;11.51;100.00;99893.06;5136398;27;20263;-57
2023/09/25 00:26:54;;;;;;;0.10;0.10;;;;;;;11.32;100.00;99890.56;5136572;27;20197;-57
2023/09/25 00:29:42;;;;;;;0.20;0.20;;;;;;;11.23;100.00;99889.28;5136296;27;20220;-58
2023/09/25 00:32:28;;;;;;;0.20;0.20;;;;;;;11.41;100.00;99888.25;5135491;27;20263;-57
2023/09/25 00:35:17;;;;;;;0.10;0.10;;;;;;;11.29;100.00;99883.66;5136408;27;20219;-58
2023/09/25 00:38:05;;;;;;;0.20;0.20;;;;;;;11.08;100.00;99890.09;5136434;27;20193;-57
2023/09/25 00:40:52;;;;;;;0.20;0.20;;;;;;;11.25;100.00;99890.03;5135122;27;20205;-57
2023/09/25 00:43:39;;;;;;;0.10;0.10;;;;;;;11.24;100.00;99887.47;5135251;27;20689;-57
2023/09/25 00:46:26;;;;;;;0.20;0.20;;;;;;;11.22;100.00;99892.88;5136260;27;20189;-57
2023/09/25 00:49:14;;;;;;;0.10;0.10;;;;;;;11.25;100.00;99900.66;5135943;27;20710;-57
2023/09/25 00:52:03;;;;;;;0.10;0.10;;;;;;;11.20;100.00;99889.47;5135916;27;20561;-57
2023/09/25 00:54:50;;;;;;;0.10;0.10;;;;;;;11.14;100.00;99903.03;5134785;27;20182;-57
2023/09/25 00:57:38;;;;;;;0.10;0.10;;;;;;;-144.59;100.00;99891.31;5136287;27;20288;-57
2023/09/25 01:00:25;;;;;;;0.10;0.10;;;;;;;11.40;100.00;99898.97;5135732;27;20190;-58
2023/09/25 01:03:13;;;;;;;0.10;0.10;;;;;;;-144.59;100.00;76090.97;5135872;27;20189;-58
2023/09/25 01:06:01;;;;;;;0.17;0.17;;;;;;;11.18;100.00;99907.22;5135956;27;20789;-57
2023/09/25 01:08:49;;;;;;;0.10;0.10;;;;;;;11.49;100.00;99901.09;5134389;27;20209;-57
2023/09/25 01:11:36;;;;;;;0.17;0.17;;;;;;;11.11;100.00;99905.88;5134280;27;20271;-57
2023/09/25 01:14:23;;;;;;;0.10;0.10;;;;;;;10.90;100.00;99902.53;5135652;27;20193;-57
2023/09/25 01:17:10;;;;;;;0.20;0.20;;;;;;;10.89;100.00;99895.53;5135490;27;20197;-57
2023/09/25 01:19:57;;;;;;;0.20;0.20;;;;;;;10.94;100.00;99901.47;5135563;27;20197;-57
2023/09/25 01:22:46;;;;;;;0.10;0.10;;;;;;;10.94;100.00;99888.22;5135349;27;20190;-57
2023/09/25 01:25:33;;;;;;;0.13;0.13;;;;;;;10.78;100.00;99897.91;5133713;27;20198;-57
2023/09/25 01:28:20;;;;;;;0.20;0.20;;;;;;;10.91;100.00;99884.88;5135110;27;20217;-57
2023/09/25 01:31:08;;;;;;;0.10;0.10;;;;;;;10.71;100.00;99886.78;5134372;27;20197;-57
2023/09/25 01:33:56;;;;;;;0.10;0.10;;;;;;;10.71;100.00;99878.84;5135175;27;20206;-57
2023/09/25 01:36:43;;;;;;;0.13;0.13;;;;;;;10.81;100.00;99882.72;5135265;27;20730;-57
2023/09/25 01:39:32;;;;;;;0.20;0.20;;;;;;;11.01;100.00;99889.59;5133983;27;20197;-57
2023/09/25 01:42:19;;;;;;;0.10;0.10;;;;;;;10.91;100.00;99882.22;5134033;27;20270;-57
2023/09/25 01:45:07;;;;;;;0.20;0.20;;;;;;;10.83;100.00;99870.25;5135138;27;20243;-57
2023/09/25 01:47:54;;;;;;;0.20;0.20;;;;;;;10.59;100.00;99864.44;5135092;27;20189;-57
2023/09/25 01:50:43;;;;;;;0.10;0.10;;;;;;;10.71;100.00;99864.72;5135010;27;20181;-57
2023/09/25 01:53:29;;;;;;;0.20;0.20;;;;;;;10.59;100.00;99867.09;5134988;27;20243;-57
2023/09/25 01:56:18;;;;;;;0.10;0.10;;;;;;;10.49;100.00;99857.06;5133676;27;20185;-57
2023/09/25 01:59:05;;;;;;;0.20;0.20;;;;;;;10.39;100.00;99861.97;5133681;27;20189;-57
2023/09/25 02:01:51;;;;;;;0.20;0.20;;;;;;;10.35;100.00;99868.38;5134871;27;20312;-57
2023/09/25 02:04:38;;;;;;;0.10;0.10;;;;;;;10.59;100.00;99867.09;5134296;27;20201;-57
2023/09/25 02:07:25;;;;;;;0.10;0.10;;;;;;;10.47;100.00;99864.22;5134684;27;20316;-57
2023/09/25 02:10:14;;;;;;;0.10;0.10;;;;;;;10.23;100.00;99859.28;5133118;27;20320;-57
2023/09/25 02:13:03;;;;;;;0.10;0.10;;;;;;;10.28;100.00;99861.69;5134507;27;20197;-57
2023/09/25 02:15:51;;;;;;;0.10;0.10;;;;;;;10.28;100.00;99862.53;5134645;27;20194;-57
2023/09/25 02:18:38;;;;;;;0.10;0.10;;;;;;;10.08;100.00;99853.88;5133289;27;20280;-57
2023/09/25 02:21:25;;;;;;;0.10;0.10;;;;;;;10.12;100.00;99861.56;5118903;27;20209;-57
2023/09/25 02:24:12;;;;;;;0.10;0.10;;;;;;;9.98;100.00;99864.91;5132881;27;20320;-57
2023/09/25 02:26:59;;;;;;;0.10;0.10;;;;;;;10.02;100.00;99863.81;5134516;27;20189;-57
2023/09/25 02:29:47;;;;;;;0.10;0.10;;;;;;;9.84;100.00;99855.94;5134045;27;20212;-57
2023/09/25 02:32:34;;;;;;;0.10;0.10;;;;;;;10.18;100.00;99866.56;5134301;27;20242;-57
2023/09/25 02:35:21;;;;;;;0.10;0.10;;;;;;;10.09;100.00;99858.22;5133154;27;20200;-57
2023/09/25 02:38:08;;;;;;;0.10;0.10;;;;;;;10.26;100.00;99863.56;5134212;27;20193;-58
2023/09/25 02:40:55;;;;;;;0.20;0.20;;;;;;;10.15;100.00;99866.72;5132996;27;20193;-57
2023/09/25 02:43:42;;;;;;;0.20;0.20;;;;;;;10.13;100.00;99860.63;5118598;27;20193;-57
2023/09/25 02:46:30;;;;;;;0.10;0.10;;;;;;;10.19;100.00;99864.75;5134087;27;20184;-57
2023/09/25 02:49:17;;;;;;;0.20;0.20;;;;;;;10.04;100.00;99861.97;5134032;27;20216;-57
2023/09/25 02:52:04;;;;;;;0.10;0.10;;;;;;;9.96;100.00;99861.50;5118570;28;20328;-57
2023/09/25 02:54:51;;;;;;;0.10;0.10;;;;;;;10.27;100.00;99860.81;5132616;28;20196;-57
2023/09/25 02:57:37;;;;;;;0.10;0.10;;;;;;;10.27;100.00;76206.09;5132912;28;20213;-57
2023/09/25 03:00:24;;;;;;;0.10;0.10;;;;;;;10.27;100.00;99865.25;5133906;28;20284;-57
2023/09/25 03:03:13;;;;;;;0.10;0.10;;;;;;;10.21;100.00;99861.09;5132967;28;20185;-58
2023/09/25 03:06:02;;;;;;;0.10;0.10;;;;;;;10.02;100.00;99866.47;5133885;28;20196;-57
2023/09/25 03:08:48;;;;;;;0.10;0.10;;;;;;;10.00;100.00;99870.97;5133677;28;20190;-57
2023/09/25 03:11:36;;;;;;;0.10;0.10;;;;;;;10.12;100.00;99869.50;5132812;28;20308;-57
2023/09/25 03:14:23;;;;;;;0.10;0.10;;;;;;;10.13;100.00;99868.56;5133927;27;20200;-57
2023/09/25 03:17:10;;;;;;;0.20;0.20;;;;;;;10.22;100.00;99869.91;5122216;27;20193;-58
2023/09/25 03:19:59;;;;;;;0.10;0.10;;;;;;;10.41;100.00;99864.53;5137961;27;20200;-57
2023/09/25 03:22:46;;;;;;;0.10;0.10;;;;;;;10.41;100.00;99864.53;5137740;27;20189;-57
2023/09/25 03:25:37;;;;;;;0.10;0.10;;;;;;;10.64;100.00;99866.84;5136567;27;20197;-58
2023/09/25 03:28:24;;;;;;;0.10;0.10;;;;;;;10.30;100.00;99860.66;5137850;27;20320;-57
2023/09/25 03:31:11;;;;;;;0.20;0.20;;;;;;;10.18;100.00;99865.69;5137605;27;20216;-57
2023/09/25 03:33:58;;;;;;;0.10;0.10;;;;;;;10.18;100.00;99857.75;5136669;27;20198;-58
2023/09/25 03:36:46;;;;;;;0.10;0.10;;;;;;;10.50;100.00;99861.41;5122160;27;20213;-58
2023/09/25 03:39:33;;;;;;;0.10;0.10;;;;;;;10.35;100.00;99857.78;5135212;27;20193;-57
2023/09/25 03:42:20;;;;;;;0.10;0.10;;;;;;;10.07;100.00;99863.59;5137611;27;20232;-57
2023/09/25 03:45:08;;;;;;;0.10;0.10;;;;;;;10.04;100.00;99863.75;5121842;27;20204;-57
2023/09/25 03:47:56;;;;;;;0.10;0.10;;;;;;;10.34;100.00;99865.81;5136507;27;20196;-57
2023/09/25 03:50:43;;;;;;;0.10;0.10;;;;;;;9.93;100.00;99861.63;5136236;27;20620;-57
2023/09/25 03:53:32;;;;;;;0.10;0.10;;;;;;;10.38;100.00;99860.25;5121627;27;20291;-57
2023/09/25 03:56:19;;;;;;;0.10;0.10;;;;;;;10.08;100.00;99867.09;5134848;27;20196;-57
2023/09/25 03:59:06;;;;;;;0.10;0.10;;;;;;;9.91;100.00;99866.16;5137131;27;20186;-57
2023/09/25 04:01:53;;;;;;;0.10;0.10;;;;;;;9.94;100.00;99859.84;5137016;27;20187;-57
2023/09/25 04:04:40;;;;;;;0.10;0.10;;;;;;;9.87;100.00;99864.59;5137199;27;20271;-58
2023/09/25 04:07:27;;;;;;;0.10;0.10;;;;;;;9.94;100.00;99873.06;5137043;27;20193;-58
2023/09/25 04:10:15;;;;;;;0.10;0.10;;;;;;;9.69;100.00;99873.44;5135340;27;20232;-58
2023/09/25 04:13:02;;;;;;;0.10;0.10;;;;;;;9.56;100.00;99857.31;5136798;27;20197;-57
2023/09/25 04:15:50;;;;;;;0.10;0.10;;;;;;;9.48;100.00;99859.47;5136870;27;20308;-57
2023/09/25 04:18:38;;;;;;;0.10;0.10;;;;;;;9.52;100.00;99866.31;5136588;27;20197;-57
2023/09/25 04:21:25;;;;;;;0.10;0.10;;;;;;;9.83;100.00;99867.47;5136929;27;20258;-57
2023/09/25 04:24:12;;;;;;;0.10;0.10;;;;;;;9.69;100.00;99865.50;5135167;27;20225;-58
2023/09/25 04:27:02;;;;;;;0.10;0.10;;;;;;;9.89;100.00;99865.38;5135984;27;20186;-58
2023/09/25 04:29:48;;;;;;;0.10;0.10;;;;;;;10.02;100.00;99866.47;5136605;27;20213;-57
2023/09/25 04:32:37;;;;;;;0.10;0.10;;;;;;;9.92;100.00;99856.41;5136661;27;20201;-58
2023/09/25 04:35:24;;;;;;;0.10;0.10;;;;;;;9.57;100.00;99859.03;5136437;27;20201;-58
2023/09/25 04:38:12;;;;;;;0.10;0.10;;;;;;;9.55;100.00;99866.16;5136455;27;20782;-57
2023/09/25 04:40:59;;;;;;;0.10;0.10;;;;;;;9.74;100.00;99869.63;5135089;27;20223;-58
2023/09/25 04:43:47;;;;;;;0.10;0.10;;;;;;;9.77;100.00;99859.84;5136230;27;20190;-57
2023/09/25 04:46:34;;;;;;;0.10;0.10;;;;;;;9.97;100.00;99860.56;5136389;27;20193;-58
2023/09/25 04:49:21;;;;;;;0.10;0.10;;;;;;;9.94;100.00;99862.47;5136289;27;20676;-57
2023/09/25 04:52:09;;;;;;;0.10;0.10;;;;;;;9.73;100.00;99856.47;5136039;27;20186;-57
2023/09/25 04:54:57;;;;;;;0.10;0.10;;;;;;;9.42;100.00;99859.75;5134843;27;20205;-58
2023/09/25 04:57:46;;;;;;;0.10;0.10;;;;;;;9.69;100.00;99857.56;5136089;27;20197;-57
2023/09/25 05:00:35;;;;;;;0.10;0.10;;;;;;;9.39;100.00;99858.13;5136025;27;20220;-57
2023/09/25 05:03:22;;;;;;;0.10;0.10;;;;;;;9.42;100.00;99865.91;5136100;27;20190;-57
2023/09/25 05:06:10;;;;;;;0.10;0.10;;;;;;;9.40;100.00;99872.19;5135923;27;20194;-57
2023/09/25 05:08:57;;;;;;;0.10;0.10;;;;;;;9.34;100.00;99877.78;5135729;27;20240;-57
2023/09/25 05:11:44;;;;;;;0.10;0.10;;;;;;;9.68;100.00;99887.59;5135692;27;20217;-57
2023/09/25 05:14:31;;;;;;;0.10;0.10;;;;;;;9.66;100.00;99881.53;5135944;27;20193;-58
2023/09/25 05:17:19;;;;;;;0.10;0.10;;;;;;;9.78;100.00;99880.06;5135591;27;20201;-57
2023/09/25 05:20:11;;;;;;;0.10;0.10;;;;;;;9.48;100.00;99879.78;5135703;27;20231;-57
2023/09/25 05:22:58;;;;;;;0.10;0.10;;;;;;;9.58;100.00;99894.28;5135310;27;20256;-57
2023/09/25 05:25:45;;;;;;;0.10;0.10;;;;;;;9.85;100.00;99890.28;5134317;27;20184;-57
2023/09/25 05:28:32;;;;;;;0.10;0.10;;;;;;;9.89;100.00;99891.84;5135405;27;20193;-57
2023/09/25 05:31:19;;;;;;;0.10;0.10;;;;;;;9.96;100.00;99895.03;5135137;27;20671;-57
2023/09/25 05:34:07;;;;;;;0.10;0.10;;;;;;;10.49;100.00;99900.28;5134986;27;20766;-57
2023/09/25 05:36:54;;;;;;;0.10;0.10;;;;;;;10.16;100.00;99891.41;5135307;27;20220;-57
2023/09/25 05:39:41;;;;;;;0.10;0.10;;;;;;;10.12;100.00;99890.69;5133116;27;20236;-57
2023/09/25 05:42:29;;;;;;;0.10;0.10;;;;;;;9.87;100.00;99890.22;5135180;27;20679;-57
2023/09/25 05:45:17;;;;;;;0.10;0.10;;;;;;;9.83;100.00;99900.06;5135048;27;20197;-58
2023/09/25 05:48:05;;;;;;;0.10;0.10;;;;;;;9.65;100.00;99896.56;5134974;27;20194;-57
2023/09/25 05:50:53;;;;;;;0.10;0.10;;;;;;;9.88;100.00;99900.72;5134884;27;20362;-57
2023/09/25 05:53:40;;;;;;;0.10;0.10;;;;;;;9.75;100.00;99902.25;5134423;27;20197;-57
2023/09/25 05:56:28;;;;;;;0.10;0.10;;;;;;;9.70;100.00;99907.75;5133958;27;20189;-57
2023/09/25 05:59:16;;;;;;;0.10;0.10;;;;;;;9.92;100.00;99904.91;5134715;27;20189;-57
2023/09/25 06:02:03;;;;;;;0.10;0.10;;;;;;;10.12;100.00;99909.22;5134908;27;20295;-57
2023/09/25 06:04:50;;;;;;;0.10;0.10;;;;;;;10.17;100.00;99912.50;5134798;27;20201;-57
2023/09/25 06:07:38;;;;;;;0.10;0.10;;;;;;;10.23;100.00;99909.59;5134757;27;20198;-57
2023/09/25 06:10:25;;;;;;;0.10;0.10;;;;;;;10.39;100.00;99914.09;5133310;27;20198;-57
2023/09/25 06:13:12;;;;;;;0.10;0.10;;;;;;;10.41;100.00;99909.56;5134690;27;20235;-57
2023/09/25 06:15:59;;;;;;;0.10;0.10;;;;;;;10.40;100.00;99916.66;5134636;27;20189;-57
2023/09/25 06:18:46;;;;;;;0.10;0.10;;;;;;;10.52;100.00;99910.75;5134604;27;20256;-57
2023/09/25 06:21:33;;;;;;;0.10;0.10;;;;;;;10.33;100.00;99912.63;5134502;27;20197;-58
2023/09/25 06:24:22;;;;;;;0.10;0.10;;;;;;;10.87;100.00;99913.31;5132881;27;20229;-57
2023/09/25 06:27:10;;;;;;;0.10;0.10;;;;;;;10.95;100.00;99907.63;5133346;27;20189;-58
2023/09/25 06:29:57;;;;;;;0.10;0.10;;;;;;;10.87;100.00;99919.47;5134238;27;20361;-57
2023/09/25 06:32:44;;;;;;;0.10;0.10;;;;;;;11.03;100.00;99924.84;5134038;27;20213;-57
2023/09/25 06:35:31;;;;;;;0.10;0.10;;;;;;;10.84;100.00;99927.59;5134176;27;20193;-57
2023/09/25 06:38:18;;;;;;;0.10;0.10;;;;;;;10.99;100.00;99923.25;5134123;27;20201;-58
2023/09/25 06:41:10;;;;;;;0.10;0.10;;;;;;;11.07;100.00;99912.25;5132925;27;20201;-57
2023/09/25 06:43:57;;;;;;;0.10;0.10;;;;;;;11.28;100.00;99913.72;5134138;27;20296;-58
2023/09/25 06:46:45;;;;;;;0.10;0.10;;;;;;;11.54;100.00;99912.31;5133975;27;20255;-58
2023/09/25 06:49:32;;;;;;;0.10;0.10;;;;;;;11.96;100.00;99919.66;5133863;27;20192;-58
2023/09/25 06:52:19;;;;;;;0.10;0.10;;;;;;;12.22;100.00;99906.66;5133784;27;20209;-58
2023/09/25 06:55:09;;;;;;;0.10;0.10;;;;;;;12.71;100.00;154847.44;5132524;28;20190;-58
2023/09/25 06:57:57;;;;;;;0.10;0.10;;;;;;;12.77;100.00;99908.69;5134036;28;20192;-57
2023/09/25 07:00:46;;;;;;;0.10;0.10;;;;;;;12.91;100.00;99906.03;5133850;28;20189;-58
2023/09/25 07:03:43;;;;;;;0.13;0.13;;;;;;;13.22;100.00;99904.16;5133910;28;20275;-58
2023/09/25 07:06:30;;;;;;;0.10;0.10;;;;;;;13.33;100.00;99902.56;5133714;28;20201;-58
2023/09/25 07:09:17;;;;;;;0.10;0.10;;;;;;;13.45;100.00;99895.59;5132536;28;20196;-58
2023/09/25 07:12:05;;;;;;;0.10;0.10;;;;;;;13.55;100.00;99899.34;5133515;28;20271;-57
2023/09/25 07:14:56;;;;;;;0.10;0.10;;;;;;;13.80;100.00;99897.75;5133749;28;20251;-57
2023/09/25 07:17:43;;;;;;;0.10;0.10;;;;;;;13.93;100.00;99896.88;5133830;28;20336;-58
2023/09/25 07:20:30;;;;;;;0.10;0.10;;;;;;;13.94;100.00;99895.91;5132660;28;20217;-57
2023/09/25 07:23:17;;;;;;;0.10;0.10;;;;;;;14.03;100.00;99889.13;5132283;28;20680;-57
2023/09/25 07:26:07;;;;;;;0.10;0.10;;;;;;;14.28;100.00;99890.97;5132404;28;20642;-57
2023/09/25 07:28:54;;;;;;;0.10;0.10;;;;;;;14.28;100.00;83326.91;5133689;28;20266;-58
2023/09/25 07:31:42;;;;;;;0.10;0.10;;;;;;;14.77;100.00;99898.34;5133510;28;20221;-57
2023/09/25 07:34:30;;;;;;;0.10;0.10;;;;;;;14.94;100.00;99910.47;5133702;28;20212;-58
2023/09/25 07:37:17;;;;;;;0.10;0.10;;;;;;;14.85;100.00;99909.31;5133678;28;20202;-57
2023/09/25 07:40:09;;;;;;;0.10;0.10;;;;;;;15.05;100.00;99913.25;5132567;28;20185;-58
2023/09/25 07:42:56;;;;;;;0.10;0.10;;;;;;;15.20;100.00;99914.00;5132461;28;20186;-57
2023/09/25 07:45:42;;;;;;;0.10;0.10;;;;;;;15.46;100.00;99908.50;5133589;28;20186;-58
2023/09/25 07:48:31;;;;;;;0.10;0.10;;;;;;;15.35;100.00;99900.41;5133512;28;20193;-58
2023/09/25 07:51:18;;;;;;;0.10;0.10;;;;;;;15.75;100.00;99908.22;5132008;28;20263;-58
2023/09/25 07:54:06;;;;;;;0.10;0.10;;;;;;;15.33;100.00;99902.31;5132143;28;20190;-58
2023/09/25 07:56:53;;;;;;;0.10;0.10;;;;;;;15.75;100.00;99892.22;5133145;28;20259;-58
2023/09/25 07:59:40;;;;;;;0.10;0.10;;;;;;;15.98;100.00;99891.34;5133229;28;20208;-57
2023/09/25 08:02:27;;;;;;;0.10;0.10;;;;;;;15.94;100.00;99895.22;5134831;27;20666;-57
2023/09/25 08:05:18;;;;;;;0.10;0.10;;;;;;;16.17;100.00;99895.31;5137154;27;20193;-58
2023/09/25 08:08:05;;;;;;;0.10;0.10;;;;;;;16.44;100.00;99897.72;5136643;27;20730;-57
2023/09/25 08:10:52;;;;;;;0.10;0.10;;;;;;;16.45;100.00;99884.22;5135438;27;20193;-58
2023/09/25 08:13:39;;;;;;;0.10;0.10;;;;;;;16.50;100.00;99894.56;5136909;27;20620;-57
2023/09/25 08:16:27;;;;;;;0.10;0.10;;;;;;;16.86;100.00;99888.22;5136883;27;20250;-57
2023/09/25 08:19:17;;;;;;;0.10;0.10;;;;;;;16.71;100.00;99886.75;5137045;27;20198;-57
2023/09/25 08:22:07;;;;;;;0.10;0.10;;;;;;;16.72;100.00;99881.28;5136799;27;20186;-57
2023/09/25 08:24:54;;;;;;;0.10;0.10;;;;;;;17.03;100.00;99887.75;5115116;27;20222;-58
2023/09/25 08:27:42;;;;;;;0.20;0.20;;;;;;;17.05;100.00;99883.13;5116037;28;20202;-57
2023/09/25 08:30:28;;;;;;;0.20;0.20;;;;;;;17.35;100.00;99895.88;5115851;28;20244;-57
2023/09/25 08:33:16;;;;;;;0.10;0.10;;;;;;;17.29;100.00;99896.41;5115511;28;20226;-58
2023/09/25 08:36:03;;;;;;;0.10;0.10;;;;;;;17.34;100.00;99891.50;5115848;28;20197;-57
2023/09/25 08:38:51;;;;;;;0.10;0.10;;;;;;;17.24;100.00;99890.53;5115786;28;20202;-57
2023/09/25 08:41:40;;;;;;;0.10;0.10;;;;;;;17.33;100.00;99895.16;5115558;28;20191;-57
2023/09/25 08:44:28;;;;;;;0.10;0.10;;;;;;;17.54;100.00;99895.25;5115728;28;20201;-57
2023/09/25 08:47:17;;;;;;;0.10;0.10;;;;;;;17.94;100.00;99894.69;5115672;28;20198;-57
2023/09/25 08:50:10;;;;;;;0.10;0.10;;;;;;;18.10;100.00;99888.94;5115222;28;20555;-57
2023/09/25 08:52:56;;;;;;;0.10;0.10;;;;;;;18.11;100.00;99886.09;5115339;28;20225;-57
2023/09/25 08:55:45;;;;;;;0.10;0.10;;;;;;;18.01;100.00;99883.34;5114150;28;20190;-57
2023/09/25 08:58:32;;;;;;;0.10;0.10;;;;;;;17.92;100.00;99893.97;5115356;28;20256;-58
2023/09/25 09:01:20;;;;;;;0.10;0.10;;;;;;;18.41;100.00;99884.50;5115412;28;20197;-57
2023/09/25 09:04:07;;;;;;;0.10;0.10;;;;;;;18.83;100.00;99877.34;5115479;28;20217;-57
2023/09/25 09:06:55;;;;;;;0.10;0.10;;;;;;;18.69;100.00;99881.19;5115286;28;20685;-57
2023/09/25 09:09:43;;;;;;;0.10;0.10;;;;;;;18.56;100.00;99880.53;5108160;28;20194;-58
2023/09/25 09:12:32;;;;;;;0.10;0.10;;;;;;;18.67;100.00;99876.94;5114193;28;20218;-57
2023/09/25 09:15:29;;;;;;;0.10;0.10;;;;;;;18.82;99.38;99879.19;5115217;28;20309;-57
2023/09/25 09:18:20;;;;;;;0.10;0.10;;;;;;;18.79;97.09;99886.63;5115058;28;20190;-57
2023/09/25 09:21:23;;;;;;;0.10;0.10;;;;;;;19.66;95.95;99887.00;5115009;28;20187;-57
2023/09/25 09:24:21;;;;;;;0.10;0.10;;;;;;;19.81;94.32;99880.25;5113580;28;20234;-57
2023/09/25 09:27:09;;;;;;;0.00;0.00;;;;;;;20.46;88.56;99875.16;5114965;28;20190;-57
2023/09/25 09:29:57;;;;;;;0.10;0.10;;;;;;;20.76;83.19;99868.75;5114902;28;20190;-58
2023/09/25 09:32:44;;;;;;;0.10;0.10;;;;;;;20.69;84.12;99867.63;5113198;28;20210;-58
2023/09/25 09:35:31;;;;;;;0.10;0.10;;;;;;;20.46;83.45;99865.28;5113073;28;20327;-57
2023/09/25 09:38:19;;;;;;;0.00;0.00;;;;;;;20.44;86.13;99863.69;5113610;28;20256;-57
2023/09/25 09:41:07;;;;;;;0.10;0.10;;;;;;;20.55;84.72;99872.47;5112718;28;20210;-58
2023/09/25 09:43:55;;;;;;;0.10;0.10;;;;;;;20.72;82.83;99872.72;5113825;28;20194;-57
2023/09/25 09:46:46;;;;;;;0.10;0.10;;;;;;;20.92;83.23;99868.97;5113897;28;20304;-57
2023/09/25 09:49:36;;;;;;;0.10;0.10;;;;;;;21.18;78.91;99871.00;5113361;28;20197;-57
2023/09/25 09:52:23;;;;;;;0.10;0.10;;;;;;;21.17;78.37;99866.63;5113435;28;20395;-58
2023/09/25 09:55:12;;;;;;;0.10;0.10;;;;;;;21.85;73.93;99867.13;5112061;28;20320;-57
2023/09/25 09:58:00;;;;;;;0.10;0.10;;;;;;;23.51;63.18;99862.56;5113365;28;20288;-57
2023/09/25 10:00:47;;;;;;;0.10;0.10;;;;;;;25.46;54.67;99861.69;5113507;28;20205;-57
2023/09/25 10:03:36;;;;;;;0.10;0.10;;;;;;;27.92;45.68;99860.09;5113290;28;20260;-57
2023/09/25 10:06:25;;;;;;;0.00;0.00;;;;;;;28.50;43.00;99859.03;5113508;28;20213;-58
2023/09/25 10:09:13;;;;;;;0.10;0.10;;;;;;;28.99;41.26;99855.44;5112027;28;20210;-58
2023/09/25 10:11:59;;;;;;;0.10;0.10;;;;;;;28.56;41.22;99861.97;5113099;28;20198;-58
2023/09/25 10:14:50;;;;;;;0.00;0.00;;;;;;;28.74;41.10;99852.28;5113312;28;20250;-58
2023/09/25 10:17:41;;;;;;;0.10;0.10;;;;;;;28.48;40.89;99843.91;5113136;28;20197;-58
2023/09/25 10:20:33;;;;;;;0.10;0.10;;;;;;;28.96;39.75;99844.91;5112953;28;20194;-58
2023/09/25 10:23:22;;;;;;;0.10;0.10;;;;;;;30.24;38.35;99837.88;5113120;28;20241;-58
2023/09/25 10:26:17;;;;;;;0.10;0.10;;;;;;;31.08;36.61;99842.66;5112338;28;20217;-58
2023/09/25 10:29:13;;;;;;;0.00;0.00;;;;;;;29.05;38.91;99843.72;5114098;28;20205;-58
2023/09/25 10:32:01;;;;;;;0.00;0.00;;;;;;;30.38;37.97;99833.22;5109523;28;20198;-58
2023/09/25 10:34:50;;;;;;;0.00;0.00;;;;;;;30.84;36.48;99832.41;5120993;27;20198;-58
2023/09/25 10:37:39;;;;;;;0.00;0.00;;;;;;;30.31;36.38;99829.69;5133328;27;20193;-58
2023/09/25 10:40:26;;;;;;;0.00;0.00;;;;;;;32.05;34.80;99829.84;5131973;27;20197;-58
2023/09/25 10:43:16;;;;;;;0.00;0.00;;;;;;;32.38;34.53;99830.44;5133807;27;20676;-58
2023/09/25 10:46:03;;;;;;;0.00;0.00;;;;;;;29.93;37.20;99827.50;5134316;27;20201;-58
2023/09/25 10:48:51;;;;;;;0.00;0.00;;;;;;;30.96;36.88;99826.03;5133804;27;20660;-58
2023/09/25 10:51:38;;;;;;;0.00;0.00;;;;;;;30.84;36.73;99837.88;5134181;27;20209;-58
2023/09/25 10:54:26;;;;;;;0.00;0.00;;;;;;;33.21;33.74;99821.00;5132279;27;20221;-58
2023/09/25 10:57:14;;;;;;;0.00;0.00;;;;;;;33.02;33.17;99825.66;5133462;27;20193;-58
2023/09/25 11:00:09;;;;;;;0.00;0.00;;;;;;;32.62;34.27;99825.16;5133960;27;20196;-59
2023/09/25 11:02:56;;;;;;;0.00;0.00;;;;;;;33.47;32.39;99823.44;5133606;27;20194;-56
2023/09/25 11:05:43;;;;;;;0.00;0.00;;;;;;;32.13;33.35;99821.31;5133605;27;20201;-56
2023/09/25 11:08:34;;;;;;;0.00;0.00;;;;;;;33.64;31.99;99823.63;5133855;27;20193;-56
2023/09/25 11:11:24;;;;;;;0.00;0.00;;;;;;;32.61;33.36;99824.31;5133575;27;20256;-56
2023/09/25 11:14:11;;;;;;;0.00;0.00;;;;;;;32.87;33.03;99815.03;5133631;27;20214;-56
2023/09/25 11:17:01;;;;;;;0.00;0.00;;;;;;;34.95;30.27;99808.88;5133744;27;20665;-56
2023/09/25 11:19:48;;;;;;;0.00;0.00;;;;;;;34.05;30.62;99805.53;5133761;27;20197;-56
2023/09/25 11:22:39;;;;;;;0.00;0.00;;;;;;;35.24;29.98;99800.69;5131839;27;20315;-56
2023/09/25 11:25:26;;;;;;;0.00;0.00;;;;;;;35.59;28.75;99796.97;5131251;27;20303;-56
2023/09/25 11:28:16;;;;;;;0.00;0.00;;;;;;;34.70;29.93;99798.09;5133577;28;20193;-56
2023/09/25 11:31:03;;;;;;;0.00;0.00;;;;;;;33.89;29.73;99796.06;5133689;27;20197;-56
2023/09/25 11:33:50;;;;;;;0.00;0.00;;;;;;;32.99;30.44;99793.16;5133572;27;20217;-56
2023/09/25 11:36:44;;;;;;;0.00;0.00;;;;;;;34.07;29.32;99797.91;5134625;27;20189;-56
2023/09/25 11:39:32;;;;;;;0.00;0.00;;;;;;;35.46;28.26;99796.19;5136314;27;20193;-56
2023/09/25 11:42:21;;;;;;;0.00;0.00;;;;;;;35.39;28.84;99786.41;5137637;27;20316;-56
2023/09/25 11:45:12;;;;;;;0.00;0.00;;;;;;;34.14;28.58;99785.69;5137463;27;20201;-55
2023/09/25 11:47:58;;;;;;;0.00;0.00;;;;;;;34.36;29.17;99794.22;5137191;27;20255;-56
2023/09/25 11:50:46;;;;;;;0.00;0.00;;;;;;;35.61;28.50;99781.03;5135888;27;20560;-56
2023/09/25 11:53:33;;;;;;;0.00;0.00;;;;;;;34.90;29.38;99783.13;5137079;27;20303;-56
2023/09/25 11:56:21;;;;;;;0.00;0.00;;;;;;;36.97;26.83;99774.25;5137093;27;20209;-56
2023/09/25 11:59:08;;;;;;;0.00;0.00;;;;;;;36.15;27.43;99771.28;5137669;27;20198;-56
2023/09/25 12:01:57;;;;;;;0.00;0.00;;;;;;;37.09;26.48;99770.53;5136968;27;20197;-56
2023/09/25 12:04:45;;;;;;;0.00;0.00;;;;;;;37.11;26.54;99766.41;5137249;27;20257;-57
2023/09/25 12:07:36;;;;;;;0.00;0.00;;;;;;;33.86;30.27;99766.22;5137124;27;20231;-56
2023/09/25 12:10:23;;;;;;;0.00;0.00;;;;;;;34.06;29.49;99757.69;5135501;27;20194;-56
2023/09/25 12:13:10;;;;;;;0.00;0.00;;;;;;;34.84;29.47;99754.63;5136857;27;20190;-56
2023/09/25 12:15:57;;;;;;;0.00;0.00;;;;;;;35.58;28.52;99752.03;5137983;27;20248;-56
2023/09/25 12:18:45;;;;;;;0.00;0.00;;;;;;;35.09;27.22;99750.75;5137853;27;20189;-56
2023/09/25 12:21:33;;;;;;;0.00;0.00;;;;;;;37.31;26.17;99751.19;5121272;27;20671;-56
2023/09/25 12:24:20;;;;;;;0.00;0.00;;;;;;;37.36;25.82;99743.78;5135052;27;20233;-56
2023/09/25 12:27:07;;;;;;;0.00;0.00;;;;;;;38.48;24.29;99744.81;5136661;27;20201;-56
2023/09/25 12:29:54;;;;;;;0.00;0.00;;;;;;;39.22;23.59;99741.94;5136621;27;20197;-56
2023/09/25 12:32:43;;;;;;;0.00;0.00;;;;;;;38.71;24.40;99745.56;5136621;27;20192;-56
2023/09/25 12:35:31;;;;;;;0.00;0.00;;;;;;;38.12;24.63;99740.94;5136280;27;20235;-56
2023/09/25 12:38:18;;;;;;;0.00;0.00;;;;;;;36.46;25.70;99750.53;5136597;27;20201;-56
2023/09/25 12:41:05;;;;;;;0.00;0.00;;;;;;;36.70;25.99;99742.91;5135218;27;20196;-56
2023/09/25 12:43:52;;;;;;;0.00;0.00;;;;;;;36.63;25.88;99734.78;5136431;27;20252;-57
2023/09/25 12:46:39;;;;;;;0.00;0.00;;;;;;;37.37;25.57;99736.34;5136385;27;20239;-56
2023/09/25 12:49:26;;;;;;;0.00;0.00;;;;;;;37.13;26.07;99730.22;5136342;27;20190;-56
2023/09/25 12:52:14;;;;;;;0.00;0.00;;;;;;;36.07;26.57;99731.16;5136220;27;20276;-56
2023/09/25 12:55:03;;;;;;;0.00;0.00;;;;;;;35.82;27.54;99727.94;5134763;27;20259;-56
2023/09/25 12:57:50;;;;;;;0.00;0.00;;;;;;;36.45;26.26;99735.06;5135966;27;20232;-56
2023/09/25 13:00:37;;;;;;;0.00;0.00;;;;;;;33.61;28.38;99735.34;5136049;27;20271;-56
2023/09/25 13:03:25;;;;;;;0.00;0.00;;;;;;;35.99;26.59;99733.47;5135935;27;20185;-56
2023/09/25 13:06:12;;;;;;;0.00;0.00;;;;;;;37.63;25.44;99718.06;5135917;27;20271;-56